Time;durP1;ratioP1;P1;durP2;ratioP2;P2;SDS_P1;SDS_P2;PMS_P1;PMS_P2;Temp;Humidity;BMP_temperature;BMP_pressure;BME280_temperature;BME280_humidity;BME280_pressure;Samples;Min_cycle;Max_cycle;Signal;HPM_P1;HPM_P2
2023/02/12 00:04:56;;;;;;;18.10;15.97;;;8.70;35.70;;;;;;10478667;28;20220;-72
2023/02/12 00:10:00;;;;;;;17.93;16.03;;;8.70;36.00;;;;;;10475986;28;20731;-72
2023/02/12 00:15:03;;;;;;;16.80;14.93;;;8.70;36.00;;;;;;10479883;28;20228;-72
2023/02/12 00:20:09;;;;;;;18.33;16.37;;;8.70;36.10;;;;;;10480357;28;20718;-72
2023/02/12 00:25:13;;;;;;;20.33;17.60;;;8.70;36.60;;;;;;10481120;28;20609;-72
2023/02/12 00:30:17;;;;;;;19.00;16.77;;;8.70;36.50;;;;;;10478844;28;20259;-72
2023/02/12 00:35:21;;;;;;;19.73;16.83;;;8.70;36.60;;;;;;10482280;28;20231;-73
2023/02/12 00:40:25;;;;;;;20.93;17.57;;;8.60;37.00;;;;;;10476482;28;20278;-73
2023/02/12 00:45:28;;;;;;;19.07;17.17;;;8.60;36.80;;;;;;10477100;28;20259;-72
2023/02/12 00:50:33;;;;;;;23.43;18.90;;;8.60;36.90;;;;;;10480565;28;20232;-72
2023/02/12 00:55:36;;;;;;;23.37;19.50;;;8.50;37.30;;;;;;10475529;28;20228;-72
2023/02/12 01:00:39;;;;;;;21.60;19.30;;;8.50;37.20;;;;;;10481440;28;20224;-72
2023/02/12 01:05:44;;;;;;;23.67;19.70;;;8.50;37.40;;;;;;10476843;28;20693;-72
2023/02/12 01:10:55;;;;;;;21.43;19.20;;;8.40;37.90;;;;;;10476032;28;20240;-72
2023/02/12 01:16:02;;;;;;;21.90;18.60;;;8.30;38.80;;;;;;10481051;28;20749;-72
2023/02/12 01:21:15;;;;;;;21.63;19.33;;;8.20;38.60;;;;;;10478463;28;20228;-72
2023/02/12 01:26:20;;;;;;;21.23;18.87;;;8.20;39.20;;;;;;10475508;28;20228;-72
2023/02/12 01:31:25;;;;;;;21.73;19.37;;;8.20;38.10;;;;;;10474257;28;20239;-72
2023/02/12 01:36:31;;;;;;;23.37;20.73;;;8.20;38.30;;;;;;10476011;28;20238;-71
2023/02/12 01:41:36;;;;;;;22.70;20.40;;;8.20;38.50;;;;;;10469323;28;20238;-73
2023/02/12 01:46:40;;;;;;;23.33;20.80;;;8.10;38.40;;;;;;10474661;28;20229;-72
2023/02/12 01:51:47;;;;;;;23.77;20.67;;;8.10;38.30;;;;;;10480441;28;20715;-72
2023/02/12 01:56:51;;;;;;;20.47;18.27;;;8.10;39.30;;;;;;10476231;28;20259;-72
2023/02/12 02:01:55;;;;;;;24.23;19.77;;;8.10;38.40;;;;;;10482282;28;20225;-72
2023/02/12 02:07:02;;;;;;;23.77;20.87;;;8.10;38.70;;;;;;10483944;28;20229;-72
2023/02/12 02:17:46;;;;;;;23.20;20.23;;;8.10;38.50;;;;;;10477412;28;20232;-72
2023/02/12 02:23:02;;;;;;;24.37;20.47;;;8.10;39.80;;;;;;10470723;28;20696;-72
2023/02/12 02:28:27;;;;;;;23.23;20.27;;;8.10;39.30;;;;;;10480146;28;20603;-72
2023/02/12 02:33:40;;;;;;;22.20;19.83;;;8.10;39.30;;;;;;10481281;28;20232;-72
2023/02/12 02:38:48;;;;;;;22.70;20.20;;;8.10;39.30;;;;;;10480008;28;20244;-72
2023/02/12 02:43:52;;;;;;;21.90;19.60;;;8.10;39.30;;;;;;10490584;28;20232;-72
2023/02/12 02:49:00;;;;;;;20.33;18.13;;;8.10;39.10;;;;;;10490790;28;20607;-72
2023/02/12 02:54:07;;;;;;;22.93;20.43;;;8.10;39.30;;;;;;10484866;28;20231;-72
2023/02/12 02:59:16;;;;;;;23.27;20.80;;;8.20;39.40;;;;;;10480072;28;20236;-72
2023/02/12 03:04:25;;;;;;;23.47;20.97;;;8.20;39.40;;;;;;10482362;28;20665;-72
2023/02/12 03:09:34;;;;;;;23.37;20.90;;;8.20;39.40;;;;;;10479320;28;20240;-72
2023/02/12 03:14:41;;;;;;;23.90;21.27;;;8.20;39.40;;;;;;10485559;28;20233;-72
2023/02/12 03:19:50;;;;;;;23.30;20.90;;;8.20;39.40;;;;;;10475064;28;20708;-72
2023/02/12 03:24:58;;;;;;;23.67;21.13;;;8.20;39.40;;;;;;10478108;28;20232;-72
2023/02/12 03:30:04;;;;;;;25.87;22.40;;;8.20;39.40;;;;;;10481352;28;20418;-72
2023/02/12 03:35:15;;;;;;;25.13;21.83;;;8.20;39.40;;;;;;10489440;28;20262;-72
2023/02/12 03:40:20;;;;;;;25.23;22.10;;;8.20;39.80;;;;;;10482447;28;20231;-72
2023/02/12 03:45:38;;;;;;;25.30;22.47;;;8.10;39.30;;;;;;10478984;28;20231;-72
2023/02/12 03:50:51;;;;;;;24.97;22.03;;;8.10;39.90;;;;;;10477579;28;20319;-72
2023/02/12 03:55:59;;;;;;;24.53;21.93;;;8.10;40.00;;;;;;10482053;28;20243;-72
2023/02/12 04:01:04;;;;;;;25.07;22.47;;;8.10;39.30;;;;;;10479276;28;20244;-72
2023/02/12 04:06:20;;;;;;;26.30;22.53;;;8.10;39.30;;;;;;10477387;28;20232;-72
2023/02/12 04:11:30;;;;;;;24.30;21.80;;;8.00;40.50;;;;;;10486156;28;20227;-72
2023/02/12 04:16:40;;;;;;;25.50;22.70;;;8.00;39.80;;;;;;10480088;28;20248;-72
2023/02/12 04:22:02;;;;;;;29.27;22.83;;;8.00;39.60;;;;;;10478125;28;20270;-72
2023/02/12 04:27:12;;;;;;;27.20;23.43;;;8.00;40.40;;;;;;10479848;28;20436;-72
2023/02/12 04:32:21;;;;;;;25.57;22.63;;;7.90;40.10;;;;;;10479759;28;20692;-72
2023/02/12 04:37:32;;;;;;;27.67;23.63;;;7.90;39.60;;;;;;10480965;28;20830;-72
2023/02/12 04:42:42;;;;;;;26.67;23.87;;;7.80;40.50;;;;;;10480197;28;20244;-72
2023/02/12 04:47:46;;;;;;;25.30;22.53;;;7.80;40.70;;;;;;10479520;28;20225;-72
2023/02/12 04:52:50;;;;;;;27.13;23.83;;;7.70;39.60;;;;;;10480232;28;20574;-72
2023/02/12 04:57:53;;;;;;;26.57;23.67;;;7.70;40.10;;;;;;10480559;28;20259;-72
2023/02/12 05:02:56;;;;;;;26.67;22.87;;;7.70;39.80;;;;;;10479576;28;20225;-72
2023/02/12 05:08:01;;;;;;;26.27;23.47;;;7.70;40.00;;;;;;10482331;28;20232;-72
2023/02/12 05:13:04;;;;;;;25.33;22.50;;;7.70;40.40;;;;;;10474682;28;20224;-72
2023/02/12 05:18:07;;;;;;;21.93;18.70;;;7.70;40.00;;;;;;10478127;28;20224;-72
2023/02/12 05:23:11;;;;;;;25.97;23.17;;;7.70;40.10;;;;;;10480716;28;20294;-72
2023/02/12 05:28:15;;;;;;;27.50;22.83;;;7.80;40.60;;;;;;10479103;28;20228;-71
2023/02/12 05:33:18;;;;;;;25.93;22.93;;;7.80;40.20;;;;;;10485917;28;20227;-71
2023/02/12 05:38:23;;;;;;;27.73;23.63;;;7.90;40.10;;;;;;10490663;28;20232;-71
2023/02/12 05:43:26;;;;;;;25.83;21.30;;;8.00;40.50;;;;;;10491467;28;20236;-71
2023/02/12 05:48:29;;;;;;;26.70;23.27;;;8.00;40.00;;;;;;10490554;28;20281;-71
2023/02/12 05:53:34;;;;;;;23.33;20.83;;;8.00;40.10;;;;;;10486675;28;20223;-71
2023/02/12 05:58:37;;;;;;;26.27;23.47;;;8.00;40.30;;;;;;10492074;28;20826;-71
2023/02/12 06:03:41;;;;;;;26.30;23.20;;;8.00;40.00;;;;;;10491701;28;20639;-71
2023/02/12 06:08:48;;;;;;;26.37;23.47;;;8.10;40.00;;;;;;10490341;28;20235;-71
2023/02/12 06:13:51;;;;;;;19.57;17.57;;;8.10;40.80;;;;;;10487766;28;20239;-71
2023/02/12 06:18:55;;;;;;;21.67;19.37;;;8.10;40.00;;;;;;10489374;28;20232;-70
2023/02/12 06:24:00;;;;;;;25.20;22.47;;;8.10;40.20;;;;;;10491489;28;20228;-71
2023/02/12 06:29:03;;;;;;;26.17;23.37;;;8.20;40.40;;;;;;10489341;28;20255;-72
2023/02/12 06:34:08;;;;;;;24.17;21.67;;;8.10;40.00;;;;;;10491643;28;20703;-72
2023/02/12 06:39:14;;;;;;;23.93;21.37;;;8.20;40.20;;;;;;10493942;28;20228;-72
2023/02/12 06:44:17;;;;;;;24.40;21.80;;;8.20;40.40;;;;;;10486017;28;20697;-72
2023/02/12 06:49:20;;;;;;;28.47;25.47;;;8.20;40.00;;;;;;10483198;28;20243;-72
2023/02/12 06:54:25;;;;;;;27.00;24.17;;;8.20;40.00;;;;;;10484373;28;20251;-72
2023/02/12 06:59:28;;;;;;;27.53;24.70;;;8.20;40.20;;;;;;10484458;28;20805;-72
2023/02/12 07:04:31;;;;;;;30.03;26.90;;;8.30;40.00;;;;;;10486449;28;20237;-72
2023/02/12 07:09:35;;;;;;;30.43;27.20;;;8.20;40.60;;;;;;10477677;28;20236;-72
2023/02/12 07:14:39;;;;;;;30.30;27.10;;;8.20;40.40;;;;;;10482237;28;20221;-72
2023/02/12 07:19:42;;;;;;;30.93;27.57;;;8.20;40.10;;;;;;10481561;28;20240;-72
2023/02/12 07:24:47;;;;;;;32.77;28.27;;;8.10;40.10;;;;;;10484740;28;20220;-72
2023/02/12 07:29:50;;;;;;;32.73;28.70;;;8.00;40.60;;;;;;10479403;28;20244;-72
2023/02/12 07:34:53;;;;;;;38.33;34.17;;;8.00;40.40;;;;;;10481856;28;20235;-72
2023/02/12 07:39:58;;;;;;;51.93;46.33;;;7.90;40.50;;;;;;10482555;28;20278;-72
2023/02/12 07:45:01;;;;;;;44.63;39.53;;;7.90;41.10;;;;;;10481834;28;20236;-72
2023/02/12 07:50:07;;;;;;;43.77;35.93;;;7.90;40.80;;;;;;10480526;28;20282;-72
2023/02/12 07:55:11;;;;;;;34.87;30.40;;;8.00;41.20;;;;;;10481573;28;20235;-72
2023/02/12 08:00:16;;;;;;;37.57;30.17;;;8.00;41.30;;;;;;10483078;28;20461;-72
2023/02/12 08:05:19;;;;;;;32.07;27.57;;;8.00;41.10;;;;;;10477761;28;20224;-72
2023/02/12 08:10:23;;;;;;;32.57;26.83;;;8.10;41.10;;;;;;10478589;28;20266;-72
2023/02/12 08:15:27;;;;;;;36.43;29.67;;;8.00;41.40;;;;;;10476438;28;20255;-73
2023/02/12 08:20:30;;;;;;;38.00;30.03;;;8.10;41.30;;;;;;10475914;28;20239;-72
2023/02/12 08:25:34;;;;;;;40.10;30.33;;;8.10;41.40;;;;;;10472491;28;20228;-72
2023/02/12 08:30:37;;;;;;;37.20;29.97;;;8.10;41.80;;;;;;10477345;28;20231;-72
2023/02/12 08:35:40;;;;;;;36.40;29.13;;;8.20;41.50;;;;;;10475662;28;20231;-72
2023/02/12 08:40:45;;;;;;;37.37;28.57;;;8.20;41.50;;;;;;10476318;28;20239;-72
2023/02/12 08:45:48;;;;;;;39.13;30.13;;;8.20;42.00;;;;;;10474471;28;20599;-72
2023/02/12 08:50:52;;;;;;;35.27;27.50;;;8.30;41.70;;;;;;10477006;28;20232;-72
2023/02/12 08:55:56;;;;;;;39.60;28.87;;;8.40;41.80;;;;;;10474792;28;20990;-72
2023/02/12 09:01:00;;;;;;;33.90;27.03;;;8.40;42.20;;;;;;10478247;28;20247;-72
2023/02/12 09:06:03;;;;;;;34.50;26.43;;;8.50;41.90;;;;;;10467746;28;20232;-72
2023/02/12 09:11:11;;;;;;;29.43;22.87;;;8.60;42.00;;;;;;10473329;28;20232;-71
2023/02/12 09:16:14;;;;;;;31.40;24.33;;;8.70;42.40;;;;;;10476127;28;20236;-70
2023/02/12 09:21:18;;;;;;;31.77;25.10;;;8.70;41.80;;;;;;10473207;28;20715;-71
2023/02/12 09:26:25;;;;;;;35.03;26.70;;;8.80;42.00;;;;;;10476393;28;20723;-71
2023/02/12 09:31:30;;;;;;;34.53;26.80;;;8.90;42.30;;;;;;10474533;28;20227;-71
2023/02/12 09:36:34;;;;;;;37.37;28.43;;;8.90;42.00;;;;;;10474854;28;20247;-71
2023/02/12 09:41:58;;;;;;;37.30;28.03;;;9.00;41.90;;;;;;10476890;28;20763;-71
2023/02/12 09:47:05;;;;;;;33.83;25.47;;;9.00;43.20;;;;;;10468001;28;20743;-71
2023/02/12 09:52:14;;;;;;;31.43;25.03;;;9.10;42.40;;;;;;10473504;28;20688;-71
2023/02/12 09:57:24;;;;;;;31.47;23.73;;;9.20;43.00;;;;;;10467714;28;20243;-71
2023/02/12 10:02:28;;;;;;;26.03;20.67;;;9.20;42.60;;;;;;10466143;28;20240;-71
2023/02/12 10:07:52;;;;;;;32.47;22.83;;;9.30;41.90;;;;;;10472233;28;20240;-73
2023/02/12 10:13:03;;;;;;;31.60;24.07;;;9.30;43.20;;;;;;10457542;28;20232;-72
2023/02/12 10:18:36;;;;;;;29.70;22.33;;;9.30;42.50;;;;;;10469042;28;20655;-73
2023/02/12 10:24:12;;;;;;;32.33;23.33;;;9.30;43.00;;;;;;10473396;28;20220;-72
2023/02/12 10:29:20;;;;;;;30.10;22.70;;;9.30;43.10;;;;;;10468194;28;20224;-73
2023/02/12 10:34:26;;;;;;;29.43;21.20;;;9.30;42.40;;;;;;10477789;28;20232;-72
2023/02/12 10:39:35;;;;;;;26.93;20.63;;;9.30;42.30;;;;;;10468523;28;20224;-72
2023/02/12 10:44:40;;;;;;;33.60;24.60;;;9.30;42.40;;;;;;10466285;28;20229;-72
2023/02/12 10:49:43;;;;;;;30.10;21.77;;;9.40;42.20;;;;;;10473393;28;20240;-72
2023/02/12 10:54:48;;;;;;;33.57;24.03;;;9.30;41.70;;;;;;10475366;28;20224;-73
2023/02/12 10:59:55;;;;;;;31.43;22.57;;;9.30;42.00;;;;;;10478422;28;20228;-72
2023/02/12 11:05:00;;;;;;;31.53;23.20;;;9.40;42.40;;;;;;10476653;28;20699;-72
2023/02/12 11:10:21;;;;;;;33.17;24.23;;;9.40;42.20;;;;;;10477064;28;20307;-73
2023/02/12 11:15:30;;;;;;;33.00;22.27;;;9.40;43.20;;;;;;10475994;28;20236;-73
2023/02/12 11:20:38;;;;;;;28.73;21.63;;;9.50;42.50;;;;;;10471850;28;20278;-73
2023/02/12 11:25:56;;;;;;;25.70;20.73;;;9.50;42.40;;;;;;10476114;28;20251;-73
2023/02/12 11:31:02;;;;;;;31.20;23.33;;;9.50;43.10;;;;;;10480947;28;20278;-73
2023/02/12 11:36:15;;;;;;;29.90;22.37;;;9.60;42.50;;;;;;10479500;28;20232;-73
2023/02/12 11:41:27;;;;;;;31.73;23.43;;;9.60;43.00;;;;;;10481464;28;20695;-72
2023/02/12 11:46:31;;;;;;;29.97;22.43;;;9.70;42.90;;;;;;10475326;28;20584;-73
2023/02/12 11:51:36;;;;;;;25.67;19.83;;;9.70;42.40;;;;;;10479457;28;20232;-73
2023/02/12 11:56:44;;;;;;;26.67;20.03;;;9.80;42.20;;;;;;10476696;28;20229;-72
2023/02/12 12:01:52;;;;;;;24.03;18.73;;;9.80;42.70;;;;;;10482705;28;20598;-72
2023/02/12 12:07:00;;;;;;;24.67;18.20;;;9.80;42.50;;;;;;10480233;28;20712;-72
2023/02/12 12:12:12;;;;;;;25.13;18.97;;;9.80;42.20;;;;;;10481807;28;20224;-72
2023/02/12 12:22:49;;;;;;;24.03;17.30;;;9.80;42.20;;;;;;10475513;28;20716;-72
2023/02/12 12:28:07;;;;;;;23.63;17.10;;;9.80;42.60;;;;;;10476231;28;20278;-72
2023/02/12 12:33:17;;;;;;;20.00;16.33;;;9.70;42.60;;;;;;10475533;28;20243;-72
2023/02/12 12:38:30;;;;;;;21.30;17.20;;;9.70;42.60;;;;;;10477448;28;20228;-73
2023/02/12 12:43:46;;;;;;;21.93;17.07;;;9.70;42.90;;;;;;10477686;28;20228;-73
2023/02/12 12:49:17;;;;;;;20.77;15.93;;;9.70;43.00;;;;;;10474810;28;20232;-73
2023/02/12 12:54:31;;;;;;;15.90;13.43;;;9.80;43.10;;;;;;10478196;28;20546;-73
2023/02/12 12:59:59;;;;;;;20.27;16.33;;;9.90;42.70;;;;;;10475409;28;20227;-72
2023/02/12 13:05:33;;;;;;;23.67;17.83;;;9.90;43.10;;;;;;10473683;28;20695;-73
2023/02/12 13:10:41;;;;;;;21.47;15.97;;;10.00;42.20;;;;;;10471729;28;20221;-72
2023/02/12 13:15:52;;;;;;;19.60;15.47;;;10.00;41.60;;;;;;10477006;28;20263;-72
2023/02/12 13:21:03;;;;;;;18.60;14.80;;;10.10;41.80;;;;;;10476118;28;20240;-72
2023/02/12 13:26:14;;;;;;;18.00;14.67;;;10.10;41.80;;;;;;10475845;28;20328;-73
2023/02/12 13:31:21;;;;;;;18.27;15.33;;;10.20;42.00;;;;;;10473876;28;20232;-72
2023/02/12 13:36:38;;;;;;;14.60;13.10;;;10.30;41.80;;;;;;10474106;28;20242;-72
2023/02/12 13:41:48;;;;;;;18.57;15.37;;;10.40;41.60;;;;;;10474324;28;20228;-72
2023/02/12 13:46:57;;;;;;;19.27;15.57;;;10.40;41.60;;;;;;10477917;28;20232;-73
2023/02/12 13:52:05;;;;;;;20.07;16.60;;;10.50;41.60;;;;;;10473745;28;20228;-72
2023/02/12 13:57:12;;;;;;;18.37;15.37;;;10.50;41.40;;;;;;10479886;28;20700;-72
2023/02/12 14:02:46;;;;;;;17.90;15.37;;;10.50;41.40;;;;;;10484478;28;20238;-72
2023/02/12 14:07:53;;;;;;;19.50;16.27;;;10.60;41.90;;;;;;10478449;28;20605;-73
2023/02/12 14:13:07;;;;;;;18.40;15.77;;;10.60;41.10;;;;;;10481875;28;20233;-73
2023/02/12 14:18:34;;;;;;;18.90;15.60;;;10.70;41.00;;;;;;10483548;28;20235;-72
2023/02/12 14:23:41;;;;;;;16.90;14.33;;;10.70;41.60;;;;;;10479250;28;20258;-73
2023/02/12 14:28:50;;;;;;;17.33;14.77;;;10.70;41.20;;;;;;10483591;28;20311;-73
2023/02/12 14:34:50;;;;;;;19.17;15.57;;;10.80;41.50;;;;;;10470677;28;20237;-73
2023/02/12 14:40:41;;;;;;;17.20;15.00;;;10.80;41.70;;;;;;10478919;28;20539;-72
2023/02/12 14:45:44;;;;;;;19.87;16.53;;;10.90;41.60;;;;;;10478315;28;20713;-72
2023/02/12 14:50:50;;;;;;;18.20;16.27;;;11.00;40.80;;;;;;10482716;28;20810;-73
2023/02/12 14:55:57;;;;;;;19.57;16.03;;;11.00;40.80;;;;;;10479043;28;20279;-76
2023/02/12 15:01:02;;;;;;;18.10;16.13;;;11.00;41.10;;;;;;10480539;28;20232;-73
2023/02/12 15:06:13;;;;;;;18.17;15.87;;;11.10;41.20;;;;;;10473828;28;20229;-74
2023/02/12 15:11:28;;;;;;;18.70;16.63;;;11.10;41.40;;;;;;10475697;28;20241;-74
2023/02/12 15:16:44;;;;;;;18.63;15.43;;;11.10;41.50;;;;;;10477450;28;20240;-74
2023/02/12 15:21:48;;;;;;;17.47;15.20;;;11.20;41.60;;;;;;10480112;28;20726;-73
2023/02/12 15:26:54;;;;;;;19.23;16.27;;;11.20;41.00;;;;;;10476258;28;20235;-73
2023/02/12 15:32:00;;;;;;;17.17;15.03;;;11.20;41.00;;;;;;10476571;28;20242;-73
2023/02/12 15:37:05;;;;;;;20.77;16.37;;;11.30;41.60;;;;;;10479007;28;20235;-73
2023/02/12 15:42:25;;;;;;;21.23;17.33;;;11.30;41.10;;;;;;10481655;28;20259;-72
2023/02/12 15:47:28;;;;;;;16.83;14.63;;;11.30;41.10;;;;;;10479389;28;20584;-73
2023/02/12 15:52:34;;;;;;;19.57;16.70;;;11.20;41.00;;;;;;10479599;28;20236;-73
2023/02/12 15:57:39;;;;;;;19.63;16.93;;;11.20;41.00;;;;;;10482019;28;20232;-72
2023/02/12 16:02:42;;;;;;;20.80;17.83;;;11.10;40.90;;;;;;10471847;28;20716;-72
2023/02/12 16:07:46;;;;;;;17.60;15.23;;;11.10;40.60;;;;;;10469978;28;20730;-71
2023/02/12 16:12:51;;;;;;;21.63;18.07;;;11.00;40.50;;;;;;10472977;28;20232;-71
2023/02/12 16:17:55;;;;;;;19.23;16.27;;;10.90;40.70;;;;;;10479188;28;20232;-72
2023/02/12 16:22:59;;;;;;;19.03;16.03;;;10.90;40.20;;;;;;10478580;28;20229;-71
2023/02/12 16:28:06;;;;;;;17.97;15.27;;;10.80;40.30;;;;;;10470539;28;20236;-72
2023/02/12 16:33:32;;;;;;;18.10;16.20;;;10.70;40.50;;;;;;10478746;28;20277;-73
2023/02/12 16:38:41;;;;;;;17.07;14.87;;;10.70;40.50;;;;;;10462346;28;20240;-72
2023/02/12 16:43:46;;;;;;;20.50;17.03;;;10.70;40.50;;;;;;10472705;28;20247;-71
2023/02/12 16:48:52;;;;;;;21.77;18.20;;;10.60;40.50;;;;;;10476579;28;20251;-72
2023/02/12 16:53:56;;;;;;;23.10;18.67;;;10.60;40.30;;;;;;10462866;28;20235;-72
2023/02/12 16:59:01;;;;;;;20.63;17.50;;;10.50;39.80;;;;;;10473775;28;20308;-72
2023/02/12 17:04:07;;;;;;;20.93;17.73;;;10.40;39.80;;;;;;10469663;28;20232;-72
2023/02/12 17:09:10;;;;;;;23.73;18.57;;;10.40;39.70;;;;;;10470107;28;20251;-72
2023/02/12 17:14:16;;;;;;;21.07;18.20;;;10.30;39.50;;;;;;10476352;28;20605;-72
2023/02/12 17:19:20;;;;;;;21.83;17.73;;;10.20;39.10;;;;;;10473896;28;20260;-73
2023/02/12 17:24:26;;;;;;;18.17;15.97;;;10.10;39.00;;;;;;10468524;28;20672;-72
2023/02/12 17:29:30;;;;;;;23.20;19.63;;;9.90;40.00;;;;;;10472785;28;20653;-72
2023/02/12 17:34:35;;;;;;;28.93;21.90;;;9.80;39.70;;;;;;10456915;28;20229;-72
2023/02/12 17:39:51;;;;;;;26.20;21.10;;;9.70;39.70;;;;;;10473697;28;20224;-72
2023/02/12 17:44:55;;;;;;;24.03;19.53;;;9.60;39.50;;;;;;10472820;28;20615;-72
2023/02/12 17:49:59;;;;;;;23.07;19.93;;;9.40;39.50;;;;;;10466744;28;20614;-72
2023/02/12 17:55:03;;;;;;;19.20;16.33;;;9.40;39.80;;;;;;10477125;28;20365;-72
2023/02/12 18:00:11;;;;;;;22.60;19.80;;;9.30;39.90;;;;;;10464055;28;20232;-72
2023/02/12 18:05:15;;;;;;;19.57;16.77;;;9.20;39.70;;;;;;10471475;28;20239;-74
2023/02/12 18:10:18;;;;;;;19.53;16.23;;;9.10;39.70;;;;;;10478310;28;20232;-73
2023/02/12 18:15:22;;;;;;;23.73;19.20;;;9.00;40.10;;;;;;10466435;28;20233;-73
2023/02/12 18:20:25;;;;;;;26.13;21.53;;;8.90;39.90;;;;;;10485626;28;20240;-73
2023/02/12 18:25:29;;;;;;;22.67;18.97;;;8.80;39.70;;;;;;10462076;28;20247;-73
2023/02/12 18:30:35;;;;;;;17.53;14.47;;;8.70;39.50;;;;;;10471002;28;20224;-74
2023/02/12 18:35:40;;;;;;;26.77;21.73;;;8.70;39.40;;;;;;10471835;28;20236;-73
2023/02/12 18:40:43;;;;;;;25.87;20.23;;;8.50;39.30;;;;;;10478668;28;20228;-73
2023/02/12 18:45:48;;;;;;;33.47;25.07;;;8.40;39.50;;;;;;10482774;28;20236;-74
2023/02/12 18:50:53;;;;;;;28.00;22.07;;;8.40;39.60;;;;;;10472135;28;20225;-73
2023/02/12 18:55:57;;;;;;;23.90;19.43;;;8.30;39.50;;;;;;10478218;28;20232;-73
2023/02/12 19:01:11;;;;;;;23.90;19.43;;;8.20;39.40;;;;;;10481489;28;20235;-73
2023/02/12 19:06:14;;;;;;;32.30;24.03;;;8.10;39.30;;;;;;10475008;28;20318;-73
2023/02/12 19:11:17;;;;;;;30.77;23.57;;;8.00;39.30;;;;;;10480680;28;20620;-73
2023/02/12 19:16:23;;;;;;;26.77;22.40;;;8.00;39.30;;;;;;10483882;28;20622;-73
2023/02/12 19:21:26;;;;;;;23.97;20.67;;;7.90;39.20;;;;;;10482947;28;20236;-72
2023/02/12 19:26:31;;;;;;;28.10;24.63;;;7.80;39.00;;;;;;10483296;28;20594;-72
2023/02/12 19:31:37;;;;;;;28.90;25.97;;;7.70;39.00;;;;;;10474725;28;20227;-71
2023/02/12 19:36:41;;;;;;;24.57;22.07;;;7.60;38.90;;;;;;10478230;28;20309;-71
2023/02/12 19:41:45;;;;;;;26.30;23.23;;;7.60;38.90;;;;;;10478838;28;20254;-71
2023/02/12 19:46:51;;;;;;;27.50;23.10;;;7.50;38.80;;;;;;10481554;28;20224;-71
2023/02/12 19:51:54;;;;;;;23.20;20.70;;;7.40;38.80;;;;;;10479556;28;20732;-71
2023/02/12 19:56:57;;;;;;;23.80;21.27;;;7.30;39.50;;;;;;10476997;28;20224;-71
2023/02/12 20:02:02;;;;;;;29.73;24.57;;;7.30;38.80;;;;;;10481158;28;20692;-71
2023/02/12 20:07:07;;;;;;;23.50;21.00;;;7.20;38.60;;;;;;10480569;28;20233;-71
2023/02/12 20:12:10;;;;;;;29.37;25.40;;;7.20;38.90;;;;;;10479274;28;20692;-71
2023/02/12 20:17:14;;;;;;;27.97;21.57;;;7.10;38.80;;;;;;10478040;28;20606;-71
2023/02/12 20:22:17;;;;;;;26.53;22.93;;;7.10;38.90;;;;;;10478211;28;20232;-71
2023/02/12 20:27:21;;;;;;;30.93;24.03;;;7.10;38.80;;;;;;10471330;28;20251;-71
2023/02/12 20:32:25;;;;;;;34.27;26.03;;;7.00;38.90;;;;;;10471529;28;20735;-72
2023/02/12 20:37:28;;;;;;;27.43;20.93;;;6.90;38.80;;;;;;10473618;28;20236;-72
2023/02/12 20:42:32;;;;;;;23.07;18.37;;;6.90;38.90;;;;;;10473687;28;20658;-73
2023/02/12 20:47:36;;;;;;;29.27;22.63;;;6.90;38.90;;;;;;10473654;28;20242;-71
2023/02/12 20:52:40;;;;;;;25.53;21.63;;;6.80;38.90;;;;;;10473903;28;20235;-71
2023/02/12 20:57:43;;;;;;;24.73;20.30;;;6.80;39.00;;;;;;10472248;28;20228;-71
2023/02/12 21:02:48;;;;;;;23.87;19.20;;;6.70;38.90;;;;;;10471625;28;20227;-71
2023/02/12 21:07:51;;;;;;;21.27;17.60;;;6.60;38.70;;;;;;10474274;28;20292;-71
2023/02/12 21:12:54;;;;;;;17.50;15.00;;;6.60;38.80;;;;;;10470879;28;20232;-71
2023/02/12 21:17:58;;;;;;;14.53;13.03;;;6.50;38.70;;;;;;10470300;28;20233;-71
2023/02/12 21:23:01;;;;;;;14.37;12.73;;;6.50;38.80;;;;;;10466174;28;20239;-71
2023/02/12 21:28:05;;;;;;;14.20;12.73;;;6.40;38.80;;;;;;10470177;28;20688;-71
2023/02/12 21:33:09;;;;;;;15.10;13.50;;;6.30;38.60;;;;;;10470141;28;20277;-71
2023/02/12 21:38:12;;;;;;;15.03;12.97;;;6.20;38.70;;;;;;10469400;28;20231;-71
2023/02/12 21:43:15;;;;;;;18.57;15.30;;;6.10;38.70;;;;;;10470895;28;20228;-71
2023/02/12 21:48:20;;;;;;;15.73;13.03;;;6.10;38.80;;;;;;10471069;28;20267;-70
2023/02/12 21:53:23;;;;;;;20.37;16.50;;;6.00;38.80;;;;;;10471166;28;20936;-71
2023/02/12 21:58:26;;;;;;;25.30;19.87;;;5.90;38.70;;;;;;10467279;28;20235;-71
2023/02/12 22:03:31;;;;;;;28.23;20.20;;;5.90;38.80;;;;;;10467248;28;20719;-71
2023/02/12 22:08:34;;;;;;;24.83;20.33;;;5.80;39.00;;;;;;10469103;28;20228;-71
2023/02/12 22:13:38;;;;;;;25.67;20.00;;;5.70;39.00;;;;;;10471900;28;20228;-71
2023/02/12 22:18:44;;;;;;;24.70;19.50;;;5.70;39.10;;;;;;10478982;28;20985;-71
2023/02/12 22:23:47;;;;;;;23.30;18.23;;;5.60;39.20;;;;;;10486079;28;20712;-71
2023/02/12 22:28:52;;;;;;;24.13;19.47;;;5.60;39.10;;;;;;10478746;28;20224;-71
2023/02/12 22:33:58;;;;;;;21.40;16.90;;;5.60;39.20;;;;;;10480782;28;20738;-71
2023/02/12 22:39:02;;;;;;;23.00;17.37;;;5.60;39.40;;;;;;10483798;28;20247;-71
2023/02/12 22:44:05;;;;;;;24.40;17.80;;;5.60;39.50;;;;;;10480999;28;20239;-71
2023/02/12 22:49:10;;;;;;;26.23;17.77;;;5.50;39.60;;;;;;10484876;28;20593;-71
2023/02/12 22:54:14;;;;;;;19.90;16.07;;;5.50;40.00;;;;;;10482578;28;20255;-70
2023/02/12 22:59:18;;;;;;;17.67;14.03;;;5.60;40.20;;;;;;10480237;28;20228;-71
2023/02/12 23:04:22;;;;;;;23.70;13.17;;;5.60;40.30;;;;;;10484023;28;20271;-71
2023/02/12 23:09:26;;;;;;;19.43;12.77;;;5.60;40.70;;;;;;10485666;28;20789;-71
2023/02/12 23:14:29;;;;;;;17.23;11.00;;;5.70;40.70;;;;;;10484380;28;20763;-70
2023/02/12 23:19:33;;;;;;;13.93;12.47;;;5.70;40.70;;;;;;10482496;28;20228;-71
2023/02/12 23:24:36;;;;;;;14.53;11.70;;;5.70;41.00;;;;;;10476809;28;20259;-70
2023/02/12 23:29:40;;;;;;;13.10;11.07;;;5.70;40.80;;;;;;10481035;28;20240;-70
2023/02/12 23:34:44;;;;;;;14.57;12.87;;;5.70;40.80;;;;;;10485363;28;20220;-70
2023/02/12 23:39:47;;;;;;;14.83;13.10;;;5.70;41.10;;;;;;10479210;28;20228;-70
2023/02/12 23:44:50;;;;;;;14.70;12.07;;;5.70;40.90;;;;;;10481317;28;20605;-70
2023/02/12 23:49:55;;;;;;;14.00;12.17;;;5.70;41.00;;;;;;10481335;28;20239;-71
2023/02/12 23:54:58;;;;;;;16.20;14.07;;;5.60;41.20;;;;;;10484920;28;20224;-70
